Time;durP1;ratioP1;P1;durP2;ratioP2;P2;SDS_P1;SDS_P2;PMS_P1;PMS_P2;Temp;Humidity;BMP_temperature;BMP_pressure;BME280_temperature;BME280_humidity;BME280_pressure;Samples;Min_cycle;Max_cycle;Signal;HPM_P1;HPM_P2
2023/04/12 00:01:48;;;;;;;3.35;3.15;;;3.50;99.90;;;;;;5042964;28;20447;-74
2023/04/12 00:04:15;;;;;;;2.85;2.47;;;3.60;99.90;;;;;;5044917;28;20586;-76
2023/04/12 00:06:41;;;;;;;4.20;3.13;;;3.60;99.90;;;;;;5051845;28;20185;-75
2023/04/12 00:09:07;;;;;;;3.28;2.53;;;3.60;99.90;;;;;;5051020;28;20230;-76
2023/04/12 00:11:34;;;;;;;5.82;3.00;;;3.60;99.90;;;;;;5047552;28;20223;-75
2023/04/12 00:14:00;;;;;;;2.53;2.35;;;3.60;99.90;;;;;;5049922;28;20192;-75
2023/04/12 00:16:25;;;;;;;2.80;2.60;;;3.70;99.90;;;;;;5050505;28;20184;-75
2023/04/12 00:18:51;;;;;;;4.28;2.85;;;3.60;99.90;;;;;;5049563;28;20699;-75
2023/04/12 00:21:18;;;;;;;2.88;2.60;;;3.70;99.90;;;;;;5050681;28;20192;-75
2023/04/12 00:23:45;;;;;;;5.78;2.90;;;3.70;99.90;;;;;;5048945;28;20286;-75
2023/04/12 00:26:11;;;;;;;3.13;2.20;;;3.70;99.90;;;;;;5047720;28;20218;-75
2023/04/12 00:28:36;;;;;;;2.70;2.45;;;3.70;99.90;;;;;;5045508;28;20223;-76
2023/04/12 00:31:02;;;;;;;2.70;2.50;;;3.70;99.90;;;;;;5044722;28;20235;-76
2023/04/12 00:33:28;;;;;;;3.72;3.10;;;3.80;99.90;;;;;;5044189;28;20200;-76
2023/04/12 00:35:53;;;;;;;3.30;2.55;;;3.70;99.90;;;;;;5048682;28;20246;-75
2023/04/12 00:38:19;;;;;;;4.57;2.90;;;3.70;99.90;;;;;;5046772;28;20183;-76
2023/04/12 00:40:44;;;;;;;4.20;2.85;;;3.70;99.90;;;;;;5049029;28;20186;-75
2023/04/12 00:43:17;;;;;;;3.25;2.95;;;3.80;99.90;;;;;;5051446;28;20342;-75
2023/04/12 00:45:47;;;;;;;3.28;2.58;;;3.80;99.90;;;;;;5040838;28;20184;-76
2023/04/12 00:48:14;;;;;;;3.13;2.90;;;3.70;99.90;;;;;;5048699;28;20244;-75
2023/04/12 00:50:43;;;;;;;4.78;2.83;;;3.70;99.90;;;;;;5038947;28;20311;-75
2023/04/12 00:53:12;;;;;;;3.40;3.00;;;3.70;99.90;;;;;;5047372;28;20202;-75
2023/04/12 00:55:39;;;;;;;5.50;3.33;;;3.70;99.90;;;;;;5049160;28;20168;-76
2023/04/12 00:58:05;;;;;;;3.58;3.25;;;3.70;99.90;;;;;;5046384;28;20183;-76
2023/04/12 01:00:31;;;;;;;3.47;3.17;;;3.70;99.90;;;;;;5040545;28;20640;-75
2023/04/12 01:02:57;;;;;;;6.95;3.17;;;3.70;99.90;;;;;;5041490;28;20483;-76
2023/04/12 01:05:23;;;;;;;5.82;3.10;;;3.60;99.90;;;;;;5046113;28;20207;-75
2023/04/12 01:08:04;;;;;;;3.40;3.10;;;3.60;99.90;;;;;;5048453;28;20196;-76
2023/04/12 01:10:33;;;;;;;3.70;3.38;;;3.60;99.90;;;;;;5044658;28;20180;-75
2023/04/12 01:13:27;;;;;;;3.42;3.13;;;3.60;99.90;;;;;;5046904;28;20221;-75
2023/04/12 01:16:23;;;;;;;3.30;3.00;;;3.60;99.90;;;;;;5044871;28;20178;-75
2023/04/12 01:18:51;;;;;;;4.45;3.30;;;3.50;99.90;;;;;;5038453;28;20652;-75
2023/04/12 01:21:34;;;;;;;3.30;3.03;;;3.50;99.90;;;;;;5045851;28;20333;-76
2023/04/12 01:24:37;;;;;;;3.50;3.20;;;3.60;99.90;;;;;;5047775;28;20239;-76
2023/04/12 01:27:15;;;;;;;3.17;2.97;;;3.50;99.90;;;;;;5045000;28;20185;-75
2023/04/12 01:29:41;;;;;;;2.97;2.67;;;3.60;99.90;;;;;;5027828;28;20202;-75
2023/04/12 01:32:11;;;;;;;4.35;3.10;;;3.60;99.90;;;;;;5042301;28;20230;-75
2023/04/12 01:34:37;;;;;;;3.40;3.03;;;3.60;99.90;;;;;;5046757;28;20197;-75
2023/04/12 01:37:05;;;;;;;3.07;2.87;;;3.60;99.90;;;;;;5045954;28;20179;-75
2023/04/12 01:39:32;;;;;;;2.80;2.60;;;3.60;99.90;;;;;;5058245;28;20171;-75
2023/04/12 01:41:58;;;;;;;2.70;2.50;;;3.50;99.90;;;;;;5041640;28;20200;-75
2023/04/12 01:44:23;;;;;;;2.63;2.43;;;3.60;99.90;;;;;;5037250;28;20622;-75
2023/04/12 01:46:50;;;;;;;2.90;2.53;;;3.60;99.90;;;;;;5049602;28;20183;-75
2023/04/12 01:49:17;;;;;;;2.33;2.13;;;3.60;99.90;;;;;;5051395;28;20171;-75
2023/04/12 01:51:57;;;;;;;2.70;2.40;;;3.60;99.90;;;;;;5041408;28;20217;-75
2023/04/12 01:54:28;;;;;;;2.60;2.40;;;3.50;99.90;;;;;;5047122;28;20192;-76
2023/04/12 01:57:01;;;;;;;3.43;2.90;;;3.60;99.90;;;;;;5054352;28;20215;-75
2023/04/12 01:59:39;;;;;;;2.57;2.37;;;3.60;99.90;;;;;;5050293;28;20259;-75
2023/04/12 02:02:06;;;;;;;4.17;2.53;;;3.60;99.90;;;;;;5045921;28;20271;-75
2023/04/12 02:04:34;;;;;;;3.00;2.70;;;3.60;99.90;;;;;;5048258;28;20191;-74
2023/04/12 02:07:00;;;;;;;2.77;2.37;;;3.60;99.90;;;;;;5050950;28;20177;-75
2023/04/12 02:09:26;;;;;;;3.07;2.87;;;3.60;99.90;;;;;;5061537;28;20596;-75
2023/04/12 02:11:51;;;;;;;3.90;2.67;;;3.60;99.90;;;;;;5045347;28;20207;-75
2023/04/12 02:14:17;;;;;;;2.47;2.27;;;3.60;99.90;;;;;;5051503;28;20616;-74
2023/04/12 02:16:44;;;;;;;2.60;2.40;;;3.70;99.90;;;;;;5036222;28;20664;-75
2023/04/12 02:19:10;;;;;;;2.63;2.43;;;3.60;99.90;;;;;;5061946;28;20175;-75
2023/04/12 02:21:44;;;;;;;2.97;2.77;;;3.70;99.90;;;;;;5046451;28;20679;-75
2023/04/12 02:24:10;;;;;;;2.37;2.27;;;3.70;99.90;;;;;;5048796;28;20231;-75
2023/04/12 02:26:37;;;;;;;3.75;2.80;;;3.70;99.90;;;;;;5055866;28;20195;-75
2023/04/12 02:29:06;;;;;;;2.77;2.53;;;3.80;99.90;;;;;;5036017;28;20180;-75
2023/04/12 02:31:32;;;;;;;3.07;2.83;;;3.80;99.90;;;;;;5046003;28;20207;-75
2023/04/12 02:33:58;;;;;;;6.20;3.20;;;3.80;99.90;;;;;;5047324;28;20195;-75
2023/04/12 02:36:23;;;;;;;3.00;2.77;;;3.80;99.90;;;;;;5053907;28;20183;-74
2023/04/12 02:38:50;;;;;;;3.55;3.00;;;3.90;99.90;;;;;;5054547;28;20184;-76
2023/04/12 02:41:17;;;;;;;3.30;3.00;;;3.90;99.90;;;;;;5045113;28;20176;-75
2023/04/12 02:43:42;;;;;;;3.00;2.70;;;3.90;99.90;;;;;;5051017;28;20204;-75
2023/04/12 02:46:08;;;;;;;2.97;2.70;;;4.00;99.90;;;;;;5053045;28;20640;-76
2023/04/12 02:48:33;;;;;;;3.60;3.30;;;4.00;99.90;;;;;;5051420;28;20241;-75
2023/04/12 02:50:59;;;;;;;4.30;3.20;;;4.00;99.90;;;;;;5035345;28;20215;-75
2023/04/12 02:53:25;;;;;;;3.03;2.78;;;4.00;99.90;;;;;;5050222;28;20710;-75
2023/04/12 02:55:50;;;;;;;2.63;2.53;;;4.10;99.90;;;;;;5051685;28;20651;-75
2023/04/12 02:58:16;;;;;;;2.67;2.47;;;4.10;99.90;;;;;;5049911;28;20176;-75
2023/04/12 03:00:42;;;;;;;3.05;2.60;;;4.20;99.90;;;;;;5050085;28;20185;-75
2023/04/12 03:03:08;;;;;;;3.10;2.90;;;4.20;99.90;;;;;;5044635;28;20321;-74
2023/04/12 03:05:35;;;;;;;3.60;2.67;;;4.20;99.90;;;;;;5046891;28;20329;-75
2023/04/12 03:08:00;;;;;;;3.95;3.35;;;4.20;99.90;;;;;;5042442;28;20652;-75
2023/04/12 03:10:26;;;;;;;3.30;3.00;;;4.30;99.90;;;;;;5050447;28;20234;-75
2023/04/12 03:12:51;;;;;;;2.80;2.60;;;4.20;99.90;;;;;;5044039;28;20216;-74
2023/04/12 03:15:17;;;;;;;3.90;3.40;;;4.10;99.90;;;;;;5042706;28;20250;-74
2023/04/12 03:17:43;;;;;;;3.72;3.40;;;4.10;99.90;;;;;;5047157;28;20232;-74
2023/04/12 03:20:09;;;;;;;4.55;3.13;;;4.10;99.90;;;;;;5051095;28;20192;-74
2023/04/12 03:22:36;;;;;;;3.47;3.17;;;4.10;99.90;;;;;;5043194;28;20203;-74
2023/04/12 03:25:05;;;;;;;3.08;2.83;;;4.20;99.90;;;;;;5048420;28;20592;-74
2023/04/12 03:27:31;;;;;;;5.88;3.33;;;4.20;99.90;;;;;;5045265;28;20185;-74
2023/04/12 03:29:57;;;;;;;3.47;3.17;;;4.20;99.90;;;;;;5041329;28;20195;-74
2023/04/12 03:32:23;;;;;;;3.50;3.22;;;4.20;99.90;;;;;;5049718;28;20615;-74
2023/04/12 03:34:49;;;;;;;3.67;2.90;;;4.20;99.90;;;;;;5048701;28;20200;-74
2023/04/12 03:37:15;;;;;;;3.75;3.10;;;4.20;99.90;;;;;;5051827;28;20175;-74
2023/04/12 03:39:43;;;;;;;5.25;3.42;;;4.30;99.90;;;;;;5040116;28;20671;-75
2023/04/12 03:42:09;;;;;;;4.45;3.45;;;4.30;99.90;;;;;;5046984;28;20177;-75
2023/04/12 03:44:35;;;;;;;3.95;3.65;;;4.40;99.90;;;;;;5048324;28;20579;-75
2023/04/12 03:47:00;;;;;;;3.45;3.15;;;4.40;99.90;;;;;;5049535;28;20590;-75
2023/04/12 03:49:26;;;;;;;4.15;3.75;;;4.50;99.90;;;;;;5042258;28;20236;-75
2023/04/12 03:51:52;;;;;;;3.80;3.45;;;4.50;99.90;;;;;;5050057;28;20652;-75
2023/04/12 03:54:17;;;;;;;5.07;4.18;;;4.50;99.90;;;;;;5048171;28;20239;-76
2023/04/12 03:56:43;;;;;;;4.30;4.00;;;4.40;99.90;;;;;;5047351;28;20539;-75
2023/04/12 03:59:08;;;;;;;4.50;4.07;;;4.40;99.90;;;;;;5050609;28;20211;-75
2023/04/12 04:01:34;;;;;;;3.88;3.58;;;4.30;99.90;;;;;;5042545;28;20211;-75
2023/04/12 04:04:00;;;;;;;4.82;4.15;;;4.30;99.90;;;;;;5048976;28;20311;-75
2023/04/12 04:06:26;;;;;;;4.32;3.92;;;4.20;99.90;;;;;;5050362;28;20652;-75
2023/04/12 04:08:52;;;;;;;5.18;4.10;;;4.30;99.90;;;;;;5056601;28;20183;-75
2023/04/12 04:11:17;;;;;;;6.47;3.92;;;4.30;99.90;;;;;;5039221;28;20580;-75
2023/04/12 04:13:45;;;;;;;5.28;3.95;;;4.30;99.90;;;;;;5047912;28;20285;-75
2023/04/12 04:16:11;;;;;;;5.80;5.03;;;4.20;99.90;;;;;;5050580;28;20313;-75
2023/04/12 04:18:37;;;;;;;4.85;4.40;;;4.10;99.90;;;;;;5055963;28;20258;-75
2023/04/12 04:21:02;;;;;;;5.40;4.90;;;4.00;99.90;;;;;;5048061;28;20279;-75
2023/04/12 04:23:37;;;;;;;5.13;4.73;;;4.00;99.90;;;;;;5044818;28;20208;-75
2023/04/12 04:26:09;;;;;;;5.57;4.80;;;3.90;99.90;;;;;;5031381;28;20182;-75
2023/04/12 04:28:37;;;;;;;6.28;4.50;;;3.90;99.90;;;;;;5049532;28;20198;-76
2023/04/12 04:31:05;;;;;;;4.57;4.18;;;3.90;99.90;;;;;;5053346;28;20184;-75
2023/04/12 04:33:32;;;;;;;5.00;4.55;;;4.00;99.90;;;;;;5046121;28;20240;-76
2023/04/12 04:35:57;;;;;;;7.60;4.68;;;4.00;99.90;;;;;;5051083;28;20535;-75
2023/04/12 04:38:25;;;;;;;4.80;4.40;;;4.10;99.90;;;;;;5054526;28;20178;-75
2023/04/12 04:40:54;;;;;;;4.78;4.38;;;4.10;99.90;;;;;;5044303;28;20606;-76
2023/04/12 04:43:23;;;;;;;4.65;4.20;;;4.10;99.90;;;;;;5045023;28;20172;-76
2023/04/12 04:45:53;;;;;;;6.68;4.45;;;4.20;99.90;;;;;;5047153;28;20237;-76
2023/04/12 04:48:20;;;;;;;4.57;4.18;;;4.10;99.90;;;;;;5053280;28;20195;-76
2023/04/12 04:50:46;;;;;;;4.55;4.13;;;4.20;99.90;;;;;;5047982;28;20191;-75
2023/04/12 04:53:11;;;;;;;5.25;4.10;;;4.30;99.90;;;;;;5046219;28;20211;-74
2023/04/12 04:55:37;;;;;;;5.45;4.72;;;4.30;99.90;;;;;;5051392;28;20186;-75
2023/04/12 04:58:04;;;;;;;4.85;4.35;;;4.30;99.90;;;;;;5051571;28;20552;-75
2023/04/12 05:00:30;;;;;;;4.70;4.30;;;4.20;99.90;;;;;;5055645;28;20171;-75
2023/04/12 05:02:56;;;;;;;4.90;4.38;;;4.30;99.90;;;;;;5044694;28;20191;-74
2023/04/12 05:05:22;;;;;;;5.63;5.05;;;4.40;99.90;;;;;;5055183;28;20203;-74
2023/04/12 05:07:48;;;;;;;5.20;4.80;;;4.30;99.90;;;;;;5055999;28;20190;-75
2023/04/12 05:10:13;;;;;;;5.03;4.53;;;4.50;99.90;;;;;;5051815;28;20195;-75
2023/04/12 05:12:39;;;;;;;5.60;4.53;;;4.50;99.90;;;;;;5049692;28;20199;-75
2023/04/12 05:15:05;;;;;;;4.70;4.38;;;4.50;99.90;;;;;;5053625;28;20226;-73
2023/04/12 05:17:33;;;;;;;5.25;4.70;;;4.60;99.90;;;;;;5047342;28;20181;-73
2023/04/12 05:19:59;;;;;;;4.65;4.25;;;4.60;99.90;;;;;;5050606;28;20705;-73
2023/04/12 05:22:24;;;;;;;5.35;4.70;;;4.60;99.90;;;;;;5037955;28;20195;-74
2023/04/12 05:24:50;;;;;;;4.53;4.13;;;4.70;99.90;;;;;;5051539;28;20200;-75
2023/04/12 05:27:16;;;;;;;4.90;4.40;;;4.70;99.90;;;;;;5048665;28;20579;-74
2023/04/12 05:29:45;;;;;;;4.70;4.20;;;4.70;99.90;;;;;;5033147;28;20179;-74
2023/04/12 05:32:11;;;;;;;5.45;4.30;;;4.70;99.90;;;;;;5040895;28;20212;-74
2023/04/12 05:34:37;;;;;;;5.55;4.65;;;4.80;99.90;;;;;;5045246;28;20222;-76
2023/04/12 05:37:03;;;;;;;6.55;4.90;;;5.00;99.90;;;;;;5044523;28;20553;-75
2023/04/12 05:39:29;;;;;;;5.68;4.53;;;5.00;99.90;;;;;;5046331;28;20179;-75
2023/04/12 05:41:55;;;;;;;5.25;4.75;;;5.10;99.90;;;;;;5046742;28;20269;-74
2023/04/12 05:44:20;;;;;;;7.32;4.93;;;5.20;99.90;;;;;;5049642;28;20386;-75
2023/04/12 05:46:46;;;;;;;7.43;4.90;;;5.30;99.90;;;;;;5049059;28;20911;-74
2023/04/12 05:49:12;;;;;;;5.68;5.10;;;5.40;99.90;;;;;;5051093;28;20709;-75
2023/04/12 05:51:37;;;;;;;5.57;5.05;;;5.60;99.90;;;;;;5044331;28;20283;-73
2023/04/12 05:54:06;;;;;;;9.60;4.68;;;5.70;99.90;;;;;;5047860;28;20674;-75
2023/04/12 05:56:32;;;;;;;5.60;4.53;;;5.90;99.90;;;;;;5045381;28;20232;-75
2023/04/12 05:59:00;;;;;;;6.15;4.65;;;6.00;99.90;;;;;;5032722;28;20182;-75
2023/04/12 06:01:30;;;;;;;6.03;4.72;;;6.00;99.90;;;;;;5038478;28;20358;-74
2023/04/12 06:04:01;;;;;;;5.03;4.40;;;5.90;99.90;;;;;;5044708;28;20204;-74
2023/04/12 06:06:29;;;;;;;4.40;4.00;;;5.80;99.90;;;;;;5046922;28;20239;-74
2023/04/12 06:08:56;;;;;;;6.70;4.85;;;6.00;99.90;;;;;;5048988;28;20659;-74
2023/04/12 06:11:23;;;;;;;5.18;4.68;;;6.10;99.90;;;;;;5049939;28;20208;-77
2023/04/12 06:13:48;;;;;;;4.82;4.35;;;6.20;99.90;;;;;;5029344;28;21105;-75
2023/04/12 06:16:14;;;;;;;4.20;3.90;;;6.40;99.90;;;;;;5048940;28;20267;-74
2023/04/12 06:18:40;;;;;;;5.13;4.63;;;6.40;99.90;;;;;;5049757;28;20178;-75
2023/04/12 06:21:05;;;;;;;5.80;4.15;;;6.30;99.90;;;;;;5030088;28;20205;-75
2023/04/12 06:23:31;;;;;;;4.63;4.32;;;6.50;99.90;;;;;;5031452;28;20261;-74
2023/04/12 06:25:56;;;;;;;4.40;4.00;;;6.60;99.90;;;;;;5047015;28;20181;-75
2023/04/12 06:28:22;;;;;;;4.43;4.07;;;6.70;99.90;;;;;;5051300;28;20734;-75
2023/04/12 06:30:48;;;;;;;4.40;4.10;;;6.60;99.90;;;;;;5041438;28;20188;-76
2023/04/12 06:33:14;;;;;;;4.60;4.20;;;6.30;99.90;;;;;;5043485;28;20199;-74
2023/04/12 06:35:40;;;;;;;4.13;3.83;;;6.20;99.90;;;;;;5045918;28;20230;-74
2023/04/12 06:38:06;;;;;;;4.40;4.00;;;6.30;99.90;;;;;;5047899;28;20192;-74
2023/04/12 06:40:31;;;;;;;4.68;4.22;;;6.50;99.90;;;;;;5036542;28;20648;-74
2023/04/12 06:42:57;;;;;;;5.72;4.10;;;6.70;99.90;;;;;;5048740;28;20192;-75
2023/04/12 06:45:23;;;;;;;5.95;3.88;;;6.70;99.90;;;;;;5046853;28;20635;-75
2023/04/12 06:47:48;;;;;;;4.85;4.28;;;6.70;99.90;;;;;;5049030;28;20208;-75
2023/04/12 06:50:14;;;;;;;4.70;4.05;;;6.60;99.90;;;;;;5046413;28;20233;-74
2023/04/12 06:52:40;;;;;;;4.28;3.97;;;6.60;99.90;;;;;;5047118;28;20211;-75
2023/04/12 06:55:06;;;;;;;5.20;4.80;;;6.60;99.90;;;;;;5046752;28;20200;-76
2023/04/12 06:57:31;;;;;;;5.13;4.20;;;6.60;99.90;;;;;;5047675;28;20183;-74
2023/04/12 06:59:57;;;;;;;4.75;4.45;;;6.70;99.90;;;;;;5031933;28;20287;-74
2023/04/12 07:02:23;;;;;;;6.93;4.40;;;6.90;99.90;;;;;;5051169;28;20205;-76
2023/04/12 07:04:55;;;;;;;4.38;4.10;;;6.80;99.90;;;;;;5042480;28;20207;-74
2023/04/12 07:07:21;;;;;;;5.25;4.75;;;6.80;99.90;;;;;;5042347;28;20218;-75
2023/04/12 07:09:46;;;;;;;6.22;4.90;;;6.70;99.90;;;;;;5045023;28;20650;-74
2023/04/12 07:12:12;;;;;;;5.70;4.95;;;6.50;99.90;;;;;;5052108;28;20748;-75
2023/04/12 07:14:38;;;;;;;5.43;4.90;;;6.50;99.90;;;;;;5051568;28;20326;-76
2023/04/12 07:17:04;;;;;;;5.97;5.32;;;6.60;99.90;;;;;;5046717;28;20303;-76
2023/04/12 07:19:30;;;;;;;5.63;4.78;;;6.50;99.90;;;;;;5043485;28;20179;-75
2023/04/12 07:21:56;;;;;;;5.60;5.10;;;6.60;99.90;;;;;;5046889;28;20196;-76
2023/04/12 07:24:22;;;;;;;7.13;5.70;;;6.60;99.90;;;;;;5050206;28;20287;-75
2023/04/12 07:26:48;;;;;;;6.68;6.00;;;6.90;99.90;;;;;;5049445;28;20288;-76
2023/04/12 07:29:13;;;;;;;5.45;5.03;;;6.90;99.90;;;;;;5047702;28;20260;-75
2023/04/12 07:31:39;;;;;;;5.70;5.30;;;6.90;99.90;;;;;;5036315;28;20251;-73
2023/04/12 07:34:05;;;;;;;6.13;5.43;;;7.10;99.90;;;;;;5041693;28;20195;-74
2023/04/12 07:36:31;;;;;;;6.25;5.80;;;7.40;99.90;;;;;;5048011;28;20172;-74
2023/04/12 07:38:56;;;;;;;7.40;5.60;;;7.40;99.90;;;;;;5044533;28;20544;-74
2023/04/12 07:41:22;;;;;;;7.53;5.78;;;7.80;99.90;;;;;;5051158;28;20193;-75
2023/04/12 07:43:48;;;;;;;8.70;5.45;;;8.00;99.90;;;;;;5049229;28;20250;-74
2023/04/12 07:46:13;;;;;;;6.18;5.63;;;8.10;99.90;;;;;;5045797;28;20214;-74
2023/04/12 07:48:39;;;;;;;6.88;6.28;;;8.30;99.90;;;;;;5051843;28;20192;-73
2023/04/12 07:51:05;;;;;;;5.97;5.43;;;8.50;99.90;;;;;;5048316;28;20218;-78
2023/04/12 07:53:30;;;;;;;5.75;5.25;;;8.50;99.90;;;;;;5047672;28;20224;-76
2023/04/12 07:55:56;;;;;;;5.95;5.03;;;8.50;99.90;;;;;;5046661;28;20245;-74
2023/04/12 07:58:23;;;;;;;5.40;4.90;;;8.80;99.90;;;;;;5041957;28;20181;-74
2023/04/12 08:00:49;;;;;;;9.02;5.38;;;9.10;99.90;;;;;;5032320;28;20198;-75
2023/04/12 08:03:16;;;;;;;5.18;4.68;;;9.40;99.90;;;;;;5049322;28;20629;-75
2023/04/12 08:05:43;;;;;;;6.93;5.25;;;9.70;99.90;;;;;;5029136;28;20279;-75
2023/04/12 08:08:09;;;;;;;5.03;4.60;;;9.70;99.90;;;;;;5048667;28;20723;-75
2023/04/12 08:10:36;;;;;;;4.38;4.07;;;9.10;99.90;;;;;;5050721;28;20217;-75
2023/04/12 08:13:02;;;;;;;4.38;3.97;;;9.00;99.90;;;;;;5046726;28;20283;-76
2023/04/12 08:15:28;;;;;;;5.35;4.57;;;8.90;99.90;;;;;;5045295;28;20198;-75
2023/04/12 08:17:53;;;;;;;5.43;4.93;;;8.70;99.90;;;;;;5049698;28;20297;-75
2023/04/12 08:20:19;;;;;;;5.18;4.65;;;9.10;99.90;;;;;;5046457;28;20191;-74
2023/04/12 08:22:45;;;;;;;4.78;4.38;;;9.20;99.90;;;;;;5045694;28;20319;-75
2023/04/12 08:25:11;;;;;;;4.70;4.40;;;9.50;99.90;;;;;;5053307;28;20204;-75
2023/04/12 08:27:41;;;;;;;4.45;4.05;;;9.60;99.90;;;;;;5049146;28;20376;-75
2023/04/12 08:30:07;;;;;;;5.10;4.70;;;9.90;99.90;;;;;;5048360;28;20186;-75
2023/04/12 08:32:33;;;;;;;3.60;3.40;;;9.70;99.90;;;;;;5041454;28;20695;-75
2023/04/12 08:34:59;;;;;;;4.78;4.38;;;9.60;99.90;;;;;;5048177;28;20208;-75
2023/04/12 08:37:25;;;;;;;4.93;4.32;;;9.30;99.90;;;;;;5051075;28;20187;-74
2023/04/12 08:39:50;;;;;;;4.93;4.53;;;9.50;99.90;;;;;;5050804;28;20632;-77
2023/04/12 08:42:16;;;;;;;4.35;3.90;;;9.70;99.90;;;;;;5050675;28;20196;-74
2023/04/12 08:44:43;;;;;;;4.55;4.20;;;9.90;99.90;;;;;;5049388;28;20207;-78
2023/04/12 08:47:10;;;;;;;4.90;4.38;;;9.60;99.90;;;;;;5050546;28;20266;-79
2023/04/12 08:49:36;;;;;;;4.32;4.00;;;9.70;99.90;;;;;;5049242;28;20183;-79
2023/04/12 08:52:04;;;;;;;5.43;4.22;;;10.00;99.90;;;;;;5050580;28;20226;-77
2023/04/12 08:54:31;;;;;;;4.32;4.03;;;9.90;99.90;;;;;;5056485;28;20463;-80
2023/04/12 08:57:00;;;;;;;4.20;3.90;;;9.90;99.90;;;;;;5052966;28;20259;-74
2023/04/12 08:59:30;;;;;;;4.85;4.00;;;9.90;99.90;;;;;;5049096;28;20265;-74
2023/04/12 09:01:57;;;;;;;4.00;3.75;;;10.00;99.90;;;;;;5047566;28;20681;-74
2023/04/12 09:04:23;;;;;;;5.07;4.07;;;10.10;99.90;;;;;;5041733;28;20290;-78
2023/04/12 09:06:49;;;;;;;4.30;4.00;;;10.10;99.90;;;;;;5047592;28;20260;-75
2023/04/12 09:09:15;;;;;;;4.97;3.83;;;10.00;99.90;;;;;;5047990;28;20266;-77
2023/04/12 09:11:41;;;;;;;4.38;3.97;;;10.10;99.90;;;;;;5046591;28;20271;-74
2023/04/12 09:14:23;;;;;;;4.40;4.03;;;9.60;99.90;;;;;;5046625;28;20305;-74
2023/04/12 09:16:49;;;;;;;4.82;4.22;;;9.50;99.90;;;;;;5045919;28;20190;-75
2023/04/12 09:19:15;;;;;;;4.53;4.22;;;9.40;99.90;;;;;;5043652;28;20966;-75
2023/04/12 09:21:54;;;;;;;4.55;4.22;;;9.40;99.90;;;;;;5040457;28;20635;-74
2023/04/12 09:24:23;;;;;;;7.43;4.60;;;9.10;99.90;;;;;;5048904;28;20725;-74
2023/04/12 09:27:01;;;;;;;4.97;4.05;;;9.10;99.90;;;;;;5046201;28;20237;-74
2023/04/12 09:29:28;;;;;;;4.88;4.43;;;9.10;99.90;;;;;;5044171;28;20188;-74
2023/04/12 09:32:01;;;;;;;5.28;4.82;;;9.10;99.90;;;;;;5047203;28;20218;-75
2023/04/12 09:34:28;;;;;;;4.88;4.40;;;8.80;99.90;;;;;;5047616;28;20227;-78
2023/04/12 09:36:54;;;;;;;5.18;4.53;;;8.80;99.90;;;;;;5050445;28;20175;-81
2023/04/12 09:39:30;;;;;;;5.20;4.70;;;8.90;99.90;;;;;;5033860;28;20700;-78
2023/04/12 09:42:07;;;;;;;5.90;4.55;;;8.60;99.90;;;;;;5047396;28;20179;-78
2023/04/12 09:44:33;;;;;;;4.60;4.20;;;8.70;99.90;;;;;;5048787;28;20550;-75
2023/04/12 09:47:04;;;;;;;4.45;4.05;;;8.90;99.90;;;;;;5042360;28;20190;-75
2023/04/12 09:49:40;;;;;;;4.72;4.32;;;9.10;99.90;;;;;;5035918;28;20190;-75
2023/04/12 09:52:09;;;;;;;4.70;4.30;;;9.40;99.90;;;;;;5040542;28;20258;-75
2023/04/12 09:54:47;;;;;;;3.97;3.67;;;9.70;99.90;;;;;;5046502;28;20253;-76
2023/04/12 09:57:17;;;;;;;3.88;3.50;;;10.00;99.90;;;;;;5047890;28;20179;-77
2023/04/12 09:59:44;;;;;;;3.88;2.70;;;10.40;99.90;;;;;;5051614;28;20183;-75
2023/04/12 10:02:13;;;;;;;4.63;2.80;;;10.50;99.90;;;;;;5047705;28;20184;-75
2023/04/12 10:04:39;;;;;;;3.88;3.53;;;10.20;99.90;;;;;;5046837;28;20282;-75
2023/04/12 10:07:05;;;;;;;5.75;3.80;;;10.40;99.90;;;;;;5033922;28;20188;-76
2023/04/12 10:09:33;;;;;;;4.85;3.50;;;10.80;99.90;;;;;;5048926;28;20176;-76
2023/04/12 10:12:00;;;;;;;4.28;3.08;;;11.20;99.90;;;;;;5047658;28;20207;-76
2023/04/12 10:14:30;;;;;;;3.08;2.78;;;11.20;99.90;;;;;;5047571;28;20246;-76
2023/04/12 10:16:58;;;;;;;3.60;2.50;;;10.80;99.90;;;;;;5044094;28;20532;-76
2023/04/12 10:19:28;;;;;;;2.88;2.53;;;10.90;99.90;;;;;;5033720;28;20229;-77
2023/04/12 10:21:55;;;;;;;2.60;2.40;;;11.20;99.90;;;;;;5055977;28;20218;-76
2023/04/12 10:24:25;;;;;;;2.65;2.45;;;11.20;99.90;;;;;;5049042;28;20234;-76
2023/04/12 10:26:52;;;;;;;2.60;2.40;;;11.30;99.90;;;;;;5052108;28;20215;-77
2023/04/12 10:29:26;;;;;;;3.20;2.35;;;11.20;99.90;;;;;;5049855;28;20186;-77
2023/04/12 10:31:57;;;;;;;2.22;2.10;;;11.30;99.90;;;;;;5049865;28;20276;-77
2023/04/12 10:34:26;;;;;;;3.45;2.40;;;11.40;99.90;;;;;;5049928;28;20750;-76
2023/04/12 10:36:57;;;;;;;2.30;2.08;;;11.30;99.90;;;;;;5033801;28;20245;-78
2023/04/12 10:39:42;;;;;;;2.15;2.03;;;11.40;99.90;;;;;;5057126;28;20646;-76
2023/04/12 10:42:24;;;;;;;3.50;2.58;;;11.20;99.90;;;;;;5053442;28;20184;-77
2023/04/12 10:44:51;;;;;;;2.42;2.20;;;10.80;99.90;;;;;;5053675;28;20635;-77
2023/04/12 10:47:48;;;;;;;3.40;2.40;;;10.60;99.90;;;;;;5039339;28;20666;-77
2023/04/12 10:50:25;;;;;;;2.83;2.63;;;10.70;99.90;;;;;;5051761;28;20188;-76
2023/04/12 10:53:11;;;;;;;2.72;2.53;;;10.70;99.90;;;;;;5055756;28;20690;-78
2023/04/12 10:55:38;;;;;;;2.78;2.58;;;11.10;99.90;;;;;;5052345;28;20178;-77
2023/04/12 10:58:03;;;;;;;3.55;2.88;;;11.20;99.90;;;;;;5052588;28;20175;-77
2023/04/12 11:01:10;;;;;;;;;;;;;;;;;;;;;
2023/04/12 11:03:36;;;;;;;3.90;3.50;;;11.70;99.90;;;;;;5040946;28;20193;-76
2023/04/12 11:06:03;;;;;;;4.07;3.67;;;11.10;99.90;;;;;;5051383;28;20263;-76
2023/04/12 11:08:30;;;;;;;3.53;3.30;;;10.80;99.90;;;;;;5051600;28;20183;-76
2023/04/12 11:11:03;;;;;;;4.07;3.78;;;10.70;99.90;;;;;;5046765;28;20207;-76
2023/04/12 11:13:35;;;;;;;3.47;3.20;;;10.60;99.90;;;;;;5052701;28;20208;-77
2023/04/12 11:16:02;;;;;;;3.55;3.15;;;10.60;99.90;;;;;;5055084;28;20195;-77
2023/04/12 11:18:28;;;;;;;3.33;2.45;;;10.80;99.90;;;;;;5049903;28;20535;-77
2023/04/12 11:20:57;;;;;;;3.88;2.53;;;10.80;99.90;;;;;;5057285;28;20202;-76
2023/04/12 11:23:23;;;;;;;3.20;2.75;;;10.50;99.90;;;;;;5043379;28;20184;-76
2023/04/12 11:25:53;;;;;;;2.58;2.38;;;10.40;99.90;;;;;;5051157;28;20233;-76
2023/04/12 11:28:19;;;;;;;2.40;2.22;;;10.70;99.90;;;;;;5035366;28;20271;-77
2023/04/12 11:30:52;;;;;;;2.55;2.35;;;10.90;99.90;;;;;;5049031;28;20218;-76
2023/04/12 11:33:36;;;;;;;3.90;2.63;;;10.80;99.90;;;;;;5026387;28;20208;-76
2023/04/12 11:36:05;;;;;;;2.47;2.28;;;11.10;99.90;;;;;;5053288;28;20627;-75
2023/04/12 11:38:31;;;;;;;3.40;3.13;;;10.90;99.90;;;;;;5047595;28;20192;-76
2023/04/12 11:40:57;;;;;;;2.97;2.60;;;10.80;99.90;;;;;;5045618;28;20648;-76
2023/04/12 11:43:23;;;;;;;3.25;2.92;;;10.80;99.90;;;;;;5054214;28;20218;-77
2023/04/12 11:46:14;;;;;;;3.65;3.08;;;11.00;99.90;;;;;;5047131;28;20187;-76
2023/04/12 11:48:44;;;;;;;2.70;2.40;;;11.30;99.90;;;;;;5041941;28;20188;-76
2023/04/12 11:51:29;;;;;;;3.75;3.10;;;10.90;99.90;;;;;;5034553;28;20180;-77
2023/04/12 11:53:57;;;;;;;2.80;2.60;;;11.10;99.90;;;;;;5035724;28;20204;-77
2023/04/12 11:56:23;;;;;;;2.92;2.72;;;10.90;99.90;;;;;;5048442;28;20229;-77
2023/04/12 11:58:49;;;;;;;3.15;2.95;;;11.20;99.90;;;;;;5049685;28;20184;-78
2023/04/12 12:01:18;;;;;;;2.67;2.50;;;11.50;99.90;;;;;;5049872;28;20191;-77
2023/04/12 12:03:44;;;;;;;2.80;2.60;;;12.00;99.90;;;;;;5036143;28;20694;-78
2023/04/12 12:06:10;;;;;;;2.80;2.50;;;12.20;99.90;;;;;;5053641;28;20219;-78
2023/04/12 12:08:37;;;;;;;2.88;2.42;;;12.10;99.90;;;;;;5046099;28;20549;-78
2023/04/12 12:11:03;;;;;;;3.22;2.92;;;12.30;99.90;;;;;;5050803;28;20186;-78
2023/04/12 12:13:49;;;;;;;2.92;2.65;;;12.50;99.90;;;;;;5048777;28;20204;-77
2023/04/12 12:16:15;;;;;;;2.97;2.40;;;13.30;99.90;;;;;;5058024;28;20226;-77
2023/04/12 12:18:44;;;;;;;2.15;2.00;;;13.40;99.90;;;;;;5052264;28;20210;-77
2023/04/12 12:21:12;;;;;;;2.55;2.35;;;13.30;99.90;;;;;;5048280;28;20238;-78
2023/04/12 12:23:38;;;;;;;2.60;2.28;;;13.30;99.90;;;;;;5030306;28;20671;-77
2023/04/12 12:26:07;;;;;;;2.55;2.35;;;13.20;99.90;;;;;;5035478;28;20207;-77
2023/04/12 12:28:40;;;;;;;2.35;2.15;;;12.70;99.90;;;;;;5040618;28;20175;-77
2023/04/12 12:31:08;;;;;;;2.53;2.05;;;12.50;99.90;;;;;;5046169;28;20188;-77
2023/04/12 12:33:41;;;;;;;2.65;2.30;;;12.50;99.90;;;;;;5033887;28;20200;-75
2023/04/12 12:36:08;;;;;;;2.30;2.20;;;12.50;99.90;;;;;;5049023;28;20319;-75
2023/04/12 12:38:35;;;;;;;2.80;2.60;;;12.40;99.90;;;;;;5045614;28;20180;-75
2023/04/12 12:41:16;;;;;;;2.20;2.10;;;12.30;99.90;;;;;;5040472;28;20232;-74
2023/04/12 12:43:49;;;;;;;2.42;2.25;;;12.20;99.90;;;;;;5045626;28;20200;-75
2023/04/12 12:46:16;;;;;;;3.03;2.25;;;11.90;99.90;;;;;;5054861;28;20184;-75
2023/04/12 12:48:43;;;;;;;4.95;2.03;;;11.60;99.90;;;;;;5031231;28;20180;-73
2023/04/12 12:51:10;;;;;;;2.30;2.20;;;11.40;99.90;;;;;;5045500;28;20639;-74
2023/04/12 12:53:37;;;;;;;2.70;2.60;;;11.20;99.90;;;;;;5052184;28;20671;-73
2023/04/12 12:56:03;;;;;;;2.50;2.30;;;10.90;99.90;;;;;;5054648;28;20184;-73
2023/04/12 12:58:30;;;;;;;2.50;2.30;;;10.80;99.90;;;;;;5047310;28;20176;-74
2023/04/12 13:00:55;;;;;;;2.90;2.70;;;10.60;99.90;;;;;;5044737;28;20195;-73